createdAt,value
2023-02-26T00:01:25.018Z,6.40
2023-02-26T00:03:53.509Z,6.40
2023-02-26T00:06:20.844Z,6.40
2023-02-26T00:08:47.912Z,6.40
2023-02-26T00:11:14.975Z,6.30
2023-02-26T00:13:44.315Z,6.30
2023-02-26T00:16:32.700Z,6.30
2023-02-26T00:19:02.516Z,6.20
2023-02-26T00:21:30.357Z,6.20
2023-02-26T00:23:58.312Z,6.10
2023-02-26T00:26:27.460Z,6.10
2023-02-26T00:28:55.449Z,6.10
2023-02-26T00:31:26.149Z,6.00
2023-02-26T00:33:54.690Z,6.00
2023-02-26T00:36:54.752Z,5.90
2023-02-26T00:39:50.914Z,5.90
2023-02-26T00:42:18.046Z,5.90
2023-02-26T00:44:45.511Z,5.80
2023-02-26T00:47:44.214Z,5.80
2023-02-26T00:50:25.668Z,5.80
2023-02-26T00:53:20.213Z,5.80
2023-02-26T00:55:47.028Z,5.80
2023-02-26T00:58:13.908Z,5.80
2023-02-26T01:00:40.684Z,5.80
2023-02-26T01:03:07.895Z,5.80
2023-02-26T01:05:35.535Z,5.70
2023-02-26T01:08:12.586Z,5.70
2023-02-26T01:10:39.691Z,5.70
2023-02-26T01:13:07.063Z,5.70
2023-02-26T01:15:34.208Z,5.70
2023-02-26T01:18:06.674Z,5.60
2023-02-26T01:20:46.327Z,5.60
2023-02-26T01:23:18.031Z,5.60
2023-02-26T01:25:57.837Z,5.60
2023-02-26T01:28:26.237Z,5.60
2023-02-26T01:31:05.270Z,5.60
2023-02-26T01:33:36.205Z,5.50
2023-02-26T01:36:09.525Z,5.50
2023-02-26T01:38:42.101Z,5.50
2023-02-26T01:41:26.945Z,5.50
2023-02-26T01:44:00.861Z,5.50
2023-02-26T01:46:40.276Z,5.60
2023-02-26T01:49:14.647Z,5.60
2023-02-26T01:51:49.333Z,5.60
2023-02-26T01:54:20.633Z,5.60
2023-02-26T01:56:50.450Z,5.60
2023-02-26T01:59:24.294Z,5.60
2023-02-26T02:01:54.163Z,5.60
2023-02-26T02:04:23.002Z,5.60
2023-02-26T02:06:50.421Z,5.70
2023-02-26T02:09:17.476Z,5.60
2023-02-26T02:11:54.852Z,5.60
2023-02-26T02:14:41.753Z,5.60
2023-02-26T02:17:26.545Z,5.60
2023-02-26T02:20:22.483Z,5.70
2023-02-26T02:23:10.528Z,5.70
2023-02-26T02:26:15.099Z,5.70
2023-02-26T02:29:03.598Z,5.60
2023-02-26T02:31:36.740Z,5.70
2023-02-26T02:34:12.932Z,5.70
2023-02-26T02:36:54.939Z,5.70
2023-02-26T02:39:57.045Z,5.60
2023-02-26T02:42:39.617Z,5.60
2023-02-26T02:45:27.413Z,5.60
2023-02-26T02:48:01.156Z,5.60
2023-02-26T02:50:34.515Z,5.60
2023-02-26T02:53:12.215Z,5.70
2023-02-26T02:55:48.407Z,5.60
2023-02-26T02:58:21.054Z,5.70
2023-02-26T03:00:51.519Z,5.60
2023-02-26T03:03:39.469Z,5.70
2023-02-26T03:06:06.605Z,5.70
2023-02-26T03:08:39.571Z,5.70
2023-02-26T03:11:09.338Z,5.70
2023-02-26T03:13:37.496Z,5.70
2023-02-26T03:16:39.596Z,5.70
2023-02-26T03:19:34.635Z,5.70
2023-02-26T03:22:10.824Z,5.70
2023-02-26T03:25:14.250Z,5.70
2023-02-26T03:27:50.541Z,5.70
2023-02-26T03:30:41.727Z,5.70
2023-02-26T03:33:22.036Z,5.70
2023-02-26T03:35:55.100Z,5.70
2023-02-26T03:38:48.027Z,5.60
2023-02-26T03:41:22.549Z,5.70
2023-02-26T03:43:56.613Z,5.70
2023-02-26T03:46:46.166Z,5.70
2023-02-26T03:49:18.918Z,5.60
2023-02-26T03:51:47.365Z,5.60
2023-02-26T03:54:56.303Z,5.60
2023-02-26T03:57:44.085Z,5.70
2023-02-26T04:00:21.559Z,5.70
2023-02-26T04:03:03.202Z,5.60
2023-02-26T04:05:35.455Z,5.60
2023-02-26T04:08:02.871Z,5.60
2023-02-26T04:11:00.550Z,5.60
2023-02-26T04:13:28.476Z,5.60
2023-02-26T04:15:56.330Z,5.50
2023-02-26T04:18:23.329Z,5.50
2023-02-26T04:20:50.250Z,5.50
2023-02-26T04:23:17.386Z,5.50
2023-02-26T04:25:44.226Z,5.50
2023-02-26T04:28:12.046Z,5.50
2023-02-26T04:30:38.896Z,5.50
2023-02-26T04:33:07.671Z,5.50
2023-02-26T04:35:34.914Z,5.40
2023-02-26T04:38:01.817Z,5.40
2023-02-26T04:40:30.404Z,5.40
2023-02-26T04:42:57.522Z,5.40
2023-02-26T04:45:27.001Z,5.40
2023-02-26T04:47:53.785Z,5.30
2023-02-26T04:50:20.971Z,5.30
2023-02-26T04:52:50.776Z,5.30
2023-02-26T04:55:17.778Z,5.30
2023-02-26T04:57:44.761Z,5.30
2023-02-26T05:00:12.245Z,5.30
2023-02-26T05:02:40.048Z,5.20
2023-02-26T05:05:07.240Z,5.20
2023-02-26T05:07:34.426Z,5.20
2023-02-26T05:10:01.270Z,5.20
2023-02-26T05:12:28.183Z,5.20
2023-02-26T05:14:54.962Z,5.20
2023-02-26T05:17:21.733Z,5.10
2023-02-26T05:19:49.277Z,5.10
2023-02-26T05:22:16.082Z,5.10
2023-02-26T05:24:43.778Z,5.10
2023-02-26T05:27:10.747Z,5.10
2023-02-26T05:29:44.990Z,5.10
2023-02-26T05:32:13.706Z,5.10
2023-02-26T05:34:40.503Z,5.10
2023-02-26T05:37:07.400Z,5.10
2023-02-26T05:39:34.265Z,5.10
2023-02-26T05:42:01.069Z,5.00
2023-02-26T05:44:27.980Z,5.00
2023-02-26T05:46:54.904Z,5.10
2023-02-26T05:49:21.867Z,5.00
2023-02-26T05:51:48.747Z,5.00
2023-02-26T05:54:15.778Z,5.00
2023-02-26T05:56:42.781Z,5.00
2023-02-26T05:59:09.590Z,5.00
2023-02-26T06:01:39.714Z,5.00
2023-02-26T06:04:06.679Z,5.00
2023-02-26T06:06:33.817Z,5.00
2023-02-26T06:09:02.358Z,5.00
2023-02-26T06:11:31.756Z,4.90
2023-02-26T06:14:00.318Z,4.90
2023-02-26T06:16:27.670Z,4.90
2023-02-26T06:18:54.648Z,4.90
2023-02-26T06:21:21.571Z,4.90
2023-02-26T06:23:48.337Z,4.90
2023-02-26T06:26:15.256Z,4.90
2023-02-26T06:28:42.123Z,4.90
2023-02-26T06:31:08.904Z,4.90
2023-02-26T06:33:35.677Z,4.90
2023-02-26T06:36:02.904Z,4.90
2023-02-26T06:38:29.849Z,4.80
2023-02-26T06:40:56.856Z,4.90
2023-02-26T06:43:23.777Z,4.90
2023-02-26T06:45:50.989Z,4.80
2023-02-26T06:48:17.861Z,4.80
2023-02-26T06:50:44.676Z,4.80
2023-02-26T06:53:11.591Z,4.80
2023-02-26T06:55:44.706Z,4.80
2023-02-26T06:58:12.131Z,4.80
2023-02-26T07:00:40.363Z,4.80
2023-02-26T07:03:09.499Z,4.80
2023-02-26T07:05:36.450Z,4.80
2023-02-26T07:08:05.440Z,4.80
2023-02-26T07:10:33.974Z,4.80
2023-02-26T07:13:00.947Z,4.80
2023-02-26T07:15:28.712Z,4.80
2023-02-26T07:17:56.602Z,4.80
2023-02-26T07:20:23.391Z,4.80
2023-02-26T07:22:50.163Z,4.80
2023-02-26T07:25:16.970Z,4.90
2023-02-26T07:27:44.047Z,4.90
2023-02-26T07:30:12.787Z,4.90
2023-02-26T07:32:39.835Z,4.90
2023-02-26T07:35:06.941Z,4.90
2023-02-26T07:37:33.843Z,4.90
2023-02-26T07:40:00.664Z,4.90
2023-02-26T07:42:27.564Z,4.90
2023-02-26T07:44:54.334Z,4.90
2023-02-26T07:47:21.182Z,4.90
2023-02-26T07:49:48.268Z,5.00
2023-02-26T07:52:15.541Z,5.00
2023-02-26T07:54:42.498Z,5.00
2023-02-26T07:57:09.745Z,5.00
2023-02-26T07:59:36.604Z,5.00
2023-02-26T08:02:03.399Z,5.10
2023-02-26T08:04:33.030Z,5.10
2023-02-26T08:07:01.556Z,5.10
2023-02-26T08:09:28.540Z,5.20
2023-02-26T08:11:55.317Z,5.20
2023-02-26T08:14:23.098Z,5.20
2023-02-26T08:16:50.004Z,5.30
2023-02-26T08:19:16.781Z,5.30
2023-02-26T08:21:43.524Z,5.40
2023-02-26T08:24:13.437Z,5.40
2023-02-26T08:26:40.703Z,5.40
2023-02-26T08:29:08.185Z,5.50
2023-02-26T08:31:35.471Z,5.50
2023-02-26T08:34:02.505Z,5.50
2023-02-26T08:36:29.570Z,5.50
2023-02-26T08:38:56.408Z,5.50
2023-02-26T08:41:23.633Z,5.60
2023-02-26T08:43:51.422Z,5.60
2023-02-26T08:46:18.342Z,5.60
2023-02-26T08:48:45.136Z,5.60
2023-02-26T08:51:11.924Z,5.60
2023-02-26T08:53:39.928Z,5.60
2023-02-26T08:56:07.228Z,5.60
2023-02-26T08:58:34.001Z,5.60
2023-02-26T09:01:00.792Z,5.60
2023-02-26T09:03:27.657Z,5.60
2023-02-26T09:05:54.437Z,5.70
2023-02-26T09:08:21.370Z,5.70
2023-02-26T09:10:48.469Z,5.70
2023-02-26T09:13:15.594Z,5.70
2023-02-26T09:15:42.511Z,5.70
2023-02-26T09:18:15.424Z,5.80
2023-02-26T09:20:43.631Z,5.90
2023-02-26T09:23:11.458Z,5.90
2023-02-26T09:25:38.756Z,6.00
2023-02-26T09:28:06.110Z,6.10
2023-02-26T09:30:33.275Z,6.10
2023-02-26T09:33:00.122Z,6.20
2023-02-26T09:35:26.901Z,6.20
2023-02-26T09:37:53.658Z,6.30
2023-02-26T09:40:31.950Z,6.30
2023-02-26T09:42:58.667Z,6.30
2023-02-26T09:45:33.236Z,6.30
2023-02-26T09:48:03.792Z,6.30
2023-02-26T09:50:52.994Z,6.30
2023-02-26T09:53:31.483Z,6.30
2023-02-26T09:56:06.979Z,6.40
2023-02-26T09:58:38.411Z,6.40
2023-02-26T10:01:14.178Z,6.40
2023-02-26T10:03:56.329Z,6.40
2023-02-26T10:06:35.601Z,6.50
2023-02-26T10:09:27.173Z,6.50
2023-02-26T10:12:03.217Z,6.60
2023-02-26T10:14:38.565Z,6.60
2023-02-26T10:17:32.194Z,6.60
2023-02-26T10:20:05.232Z,6.70
2023-02-26T10:22:42.146Z,6.60
2023-02-26T10:25:18.936Z,6.60
2023-02-26T10:28:23.179Z,6.60
2023-02-26T10:30:56.975Z,6.60
2023-02-26T10:33:53.087Z,6.60
2023-02-26T10:36:30.883Z,6.60
2023-02-26T10:39:03.978Z,6.60
2023-02-26T10:41:35.129Z,6.60
2023-02-26T10:44:15.972Z,6.60
2023-02-26T10:47:03.379Z,6.60
2023-02-26T10:49:40.634Z,6.60
2023-02-26T10:52:28.822Z,6.70
2023-02-26T10:55:07.785Z,6.70
2023-02-26T10:57:38.835Z,6.80
2023-02-26T11:00:07.461Z,6.90
2023-02-26T11:02:39.263Z,6.90
2023-02-26T11:05:17.405Z,7.00
2023-02-26T11:07:48.338Z,7.00
2023-02-26T11:10:19.328Z,7.10
2023-02-26T11:12:47.267Z,7.10
2023-02-26T11:15:17.115Z,7.20
2023-02-26T11:17:45.483Z,7.20
2023-02-26T11:20:18.192Z,7.20
2023-02-26T11:22:49.383Z,7.20
2023-02-26T11:25:19.746Z,7.20
2023-02-26T11:27:49.309Z,7.20
2023-02-26T11:30:20.716Z,7.20
2023-02-26T11:32:52.504Z,7.20
2023-02-26T11:35:23.020Z,7.20
2023-02-26T11:37:55.909Z,7.20
2023-02-26T11:40:28.900Z,7.30
2023-02-26T11:42:58.133Z,7.20
2023-02-26T11:45:25.331Z,7.20
2023-02-26T11:48:05.127Z,7.20
2023-02-26T11:50:43.218Z,7.20
2023-02-26T11:53:35.739Z,7.20
2023-02-26T11:56:30.916Z,7.20
2023-02-26T11:59:02.383Z,7.20
2023-02-26T12:01:30.047Z,7.20
2023-02-26T12:04:00.829Z,7.20
2023-02-26T12:06:27.890Z,7.20
2023-02-26T12:08:55.095Z,7.30
2023-02-26T12:11:39.249Z,7.30
2023-02-26T12:14:35.831Z,7.30
2023-02-26T12:17:02.698Z,7.30
2023-02-26T12:19:56.956Z,7.40
2023-02-26T12:23:01.456Z,7.40
2023-02-26T12:25:38.864Z,7.40
2023-02-26T12:28:24.598Z,7.40
2023-02-26T12:31:48.551Z,7.40
2023-02-26T12:34:24.524Z,7.40
2023-02-26T12:37:18.910Z,7.50
2023-02-26T12:39:51.521Z,7.50
2023-02-26T12:42:33.286Z,7.50
2023-02-26T12:45:33.878Z,7.50
2023-02-26T12:48:38.797Z,7.50
2023-02-26T12:51:27.587Z,7.50
2023-02-26T12:54:13.760Z,7.50
2023-02-26T12:57:22.294Z,7.50
2023-02-26T13:00:17.284Z,7.50
2023-02-26T13:03:22.241Z,7.50
2023-02-26T13:06:32.651Z,7.60
2023-02-26T13:09:17.053Z,7.50
2023-02-26T13:11:57.256Z,7.60
2023-02-26T13:15:10.662Z,7.60
2023-02-26T13:17:50.930Z,7.60
2023-02-26T13:20:23.031Z,7.60
2023-02-26T13:23:01.158Z,7.60
2023-02-26T13:25:51.765Z,7.70
2023-02-26T13:28:39.282Z,7.60
2023-02-26T13:31:23.211Z,7.70
2023-02-26T13:33:53.232Z,7.70
2023-02-26T13:36:22.243Z,7.70
2023-02-26T13:39:23.903Z,7.70
2023-02-26T13:42:35.075Z,7.70
2023-02-26T13:45:14.066Z,7.70
2023-02-26T13:47:52.899Z,7.70
2023-02-26T13:50:29.027Z,7.70
2023-02-26T13:53:03.297Z,7.70
2023-02-26T13:55:46.581Z,7.70
2023-02-26T13:58:18.532Z,7.70
2023-02-26T14:01:05.242Z,7.70
2023-02-26T14:03:47.462Z,7.70
2023-02-26T14:06:42.126Z,7.70
2023-02-26T14:09:24.193Z,7.70
2023-02-26T14:12:03.609Z,7.70
2023-02-26T14:14:44.204Z,7.70
2023-02-26T14:17:10.932Z,7.70
2023-02-26T14:19:52.801Z,7.70
2023-02-26T14:22:29.973Z,7.70
2023-02-26T14:25:37.406Z,7.70
2023-02-26T14:28:26.806Z,7.70
2023-02-26T14:31:16.137Z,7.70
2023-02-26T14:33:47.850Z,7.70
2023-02-26T14:36:24.813Z,7.70
2023-02-26T14:38:52.540Z,7.70
2023-02-26T14:41:40.507Z,7.70
2023-02-26T14:44:15.987Z,7.70
2023-02-26T14:46:44.300Z,7.70
2023-02-26T14:49:36.301Z,7.70
2023-02-26T14:52:25.549Z,7.70
2023-02-26T14:55:08.200Z,7.70
2023-02-26T14:58:04.456Z,7.70
2023-02-26T15:01:19.422Z,7.70
2023-02-26T15:04:13.867Z,7.70
2023-02-26T15:06:43.379Z,7.70
2023-02-26T15:09:23.227Z,7.70
2023-02-26T15:11:56.239Z,7.70
2023-02-26T15:15:12.678Z,7.70
2023-02-26T15:17:48.771Z,7.70
2023-02-26T15:20:55.873Z,7.70
2023-02-26T15:23:35.374Z,7.70
2023-02-26T15:26:03.997Z,7.70
2023-02-26T15:28:36.672Z,7.70
2023-02-26T15:31:06.443Z,7.70
2023-02-26T15:33:34.290Z,7.70
2023-02-26T15:36:05.253Z,7.70
2023-02-26T15:38:45.278Z,7.70
2023-02-26T15:41:12.572Z,7.70
2023-02-26T15:43:46.326Z,7.70
2023-02-26T15:46:14.171Z,7.70
2023-02-26T15:48:42.331Z,7.70
2023-02-26T15:51:12.713Z,7.70
2023-02-26T15:53:48.949Z,7.80
2023-02-26T15:56:28.488Z,7.80
2023-02-26T15:59:00.513Z,7.80
2023-02-26T16:01:29.295Z,7.80
2023-02-26T16:04:06.005Z,7.80
2023-02-26T16:06:40.352Z,7.80
2023-02-26T16:09:15.767Z,7.80
2023-02-26T16:11:45.499Z,7.80
2023-02-26T16:14:24.208Z,7.80
2023-02-26T16:16:54.042Z,7.80
2023-02-26T16:19:44.062Z,7.80
2023-02-26T16:22:21.735Z,7.80
2023-02-26T16:24:58.097Z,7.80
2023-02-26T16:27:30.935Z,7.80
2023-02-26T16:30:01.364Z,7.80
2023-02-26T16:32:31.379Z,7.80
2023-02-26T16:35:00.993Z,7.80
2023-02-26T16:37:36.062Z,7.80
2023-02-26T16:40:08.838Z,7.80
2023-02-26T16:42:51.070Z,7.80
2023-02-26T16:45:35.736Z,7.80
2023-02-26T16:48:26.026Z,7.70
2023-02-26T16:51:15.783Z,7.70
2023-02-26T16:53:59.699Z,7.70
2023-02-26T16:56:38.682Z,7.70
2023-02-26T16:59:24.219Z,7.70
2023-02-26T17:02:04.809Z,7.70
2023-02-26T17:04:36.818Z,7.70
2023-02-26T17:07:26.881Z,7.70
2023-02-26T17:09:58.675Z,7.70
2023-02-26T17:12:45.703Z,7.70
2023-02-26T17:15:18.123Z,7.60
2023-02-26T17:17:45.222Z,7.60
2023-02-26T17:20:12.721Z,7.60
2023-02-26T17:22:43.031Z,7.60
2023-02-26T17:25:15.761Z,7.50
2023-02-26T17:27:43.363Z,7.50
2023-02-26T17:30:16.081Z,7.50
2023-02-26T17:32:43.794Z,7.50
2023-02-26T17:35:16.044Z,7.50
2023-02-26T17:37:43.285Z,7.50
2023-02-26T17:40:26.538Z,7.50
2023-02-26T17:42:53.735Z,7.40
2023-02-26T17:45:21.485Z,7.40
2023-02-26T17:47:49.995Z,7.40
2023-02-26T17:50:34.791Z,7.40
2023-02-26T17:53:01.841Z,7.40
2023-02-26T17:55:28.673Z,7.30
2023-02-26T17:57:56.545Z,7.40
2023-02-26T18:00:23.944Z,7.30
2023-02-26T18:02:51.644Z,7.30
2023-02-26T18:05:19.680Z,7.30
2023-02-26T18:07:48.974Z,7.30
2023-02-26T18:10:20.441Z,7.30
2023-02-26T18:12:47.434Z,7.20
2023-02-26T18:15:14.776Z,7.20
2023-02-26T18:17:41.994Z,7.20
2023-02-26T18:20:18.560Z,7.20
2023-02-26T18:22:47.929Z,7.20
2023-02-26T18:25:15.736Z,7.20
2023-02-26T18:27:43.320Z,7.20
2023-02-26T18:30:23.114Z,7.20
2023-02-26T18:32:49.981Z,7.20
2023-02-26T18:35:17.946Z,7.20
2023-02-26T18:37:45.830Z,7.20
2023-02-26T18:40:16.703Z,7.20
2023-02-26T18:42:43.597Z,7.10
2023-02-26T18:45:11.371Z,7.10
2023-02-26T18:47:38.902Z,7.10
2023-02-26T18:50:07.252Z,7.10
2023-02-26T18:52:34.382Z,7.10
2023-02-26T18:55:03.005Z,7.10
2023-02-26T18:57:30.364Z,7.10
2023-02-26T18:59:57.276Z,7.10
2023-02-26T19:02:24.190Z,7.10
2023-02-26T19:04:51.343Z,7.10
2023-02-26T19:07:18.454Z,7.10
2023-02-26T19:09:45.309Z,7.10
2023-02-26T19:12:17.634Z,7.10
2023-02-26T19:14:44.559Z,7.10
2023-02-26T19:17:11.340Z,7.10
2023-02-26T19:19:40.475Z,7.10
2023-02-26T19:22:07.740Z,7.10
2023-02-26T19:24:34.682Z,7.10
2023-02-26T19:27:01.573Z,7.10
2023-02-26T19:29:28.339Z,7.10
2023-02-26T19:31:55.278Z,7.10
2023-02-26T19:34:23.041Z,7.10
2023-02-26T19:36:49.841Z,7.00
2023-02-26T19:39:18.525Z,7.00
2023-02-26T19:41:48.924Z,7.00
2023-02-26T19:44:17.086Z,7.00
2023-02-26T19:46:44.012Z,7.00
2023-02-26T19:49:10.934Z,7.00
2023-02-26T19:51:38.135Z,7.00
2023-02-26T19:54:05.287Z,7.00
2023-02-26T19:56:32.684Z,7.00
2023-02-26T19:58:59.469Z,7.00
2023-02-26T20:01:26.621Z,7.00
2023-02-26T20:03:53.599Z,6.90
2023-02-26T20:06:21.182Z,6.90
2023-02-26T20:08:48.166Z,6.90
2023-02-26T20:11:15.045Z,6.90
2023-02-26T20:13:41.878Z,6.90
2023-02-26T20:16:10.070Z,6.90
2023-02-26T20:18:37.255Z,6.90
2023-02-26T20:21:08.098Z,6.90
2023-02-26T20:23:37.497Z,6.90
2023-02-26T20:26:10.502Z,6.80
2023-02-26T20:28:37.473Z,6.80
2023-02-26T20:31:05.822Z,6.80
2023-02-26T20:33:33.766Z,6.80
2023-02-26T20:36:00.977Z,6.80
2023-02-26T20:38:28.870Z,6.70
2023-02-26T20:40:56.683Z,6.70
2023-02-26T20:43:25.096Z,6.70
2023-02-26T20:45:53.917Z,6.70
2023-02-26T20:48:21.387Z,6.60
2023-02-26T20:50:48.712Z,6.60
2023-02-26T20:53:15.873Z,6.60
2023-02-26T20:55:42.658Z,6.60
2023-02-26T20:58:09.562Z,6.50
2023-02-26T21:00:36.622Z,6.50
2023-02-26T21:03:03.430Z,6.50
2023-02-26T21:05:30.317Z,6.50
2023-02-26T21:07:57.089Z,6.50
2023-02-26T21:10:23.872Z,6.50
2023-02-26T21:12:51.703Z,6.40
2023-02-26T21:15:18.916Z,6.40
2023-02-26T21:17:45.799Z,6.40
2023-02-26T21:20:17.348Z,6.40
2023-02-26T21:22:45.418Z,6.40
2023-02-26T21:25:12.639Z,6.30
2023-02-26T21:27:40.040Z,6.30
2023-02-26T21:30:10.286Z,6.30
2023-02-26T21:32:37.544Z,6.30
2023-02-26T21:35:04.920Z,6.30
2023-02-26T21:37:31.826Z,6.30
2023-02-26T21:39:58.746Z,6.20
2023-02-26T21:42:25.789Z,6.20
2023-02-26T21:44:52.592Z,6.20
2023-02-26T21:47:19.411Z,6.20
2023-02-26T21:49:46.438Z,6.10
2023-02-26T21:52:13.236Z,6.10
2023-02-26T21:54:40.253Z,6.10
2023-02-26T21:57:07.396Z,6.10
2023-02-26T21:59:34.530Z,6.10
2023-02-26T22:02:02.083Z,6.10
2023-02-26T22:04:29.138Z,6.00
2023-02-26T22:06:56.813Z,6.00
2023-02-26T22:09:23.632Z,6.00
2023-02-26T22:11:50.694Z,6.00
2023-02-26T22:14:17.665Z,6.00
2023-02-26T22:16:44.597Z,6.00
2023-02-26T22:19:11.474Z,6.00
2023-02-26T22:21:38.482Z,6.00
2023-02-26T22:24:06.023Z,6.00
2023-02-26T22:26:32.897Z,5.90
2023-02-26T22:29:00.773Z,5.90
2023-02-26T22:31:34.425Z,5.90
2023-02-26T22:34:01.340Z,5.90
2023-02-26T22:36:30.182Z,5.90
2023-02-26T22:38:57.328Z,5.90
2023-02-26T22:41:24.233Z,5.90
2023-02-26T22:43:53.591Z,5.90
2023-02-26T22:46:20.978Z,5.90
2023-02-26T22:48:47.770Z,5.90
2023-02-26T22:51:14.541Z,5.90
2023-02-26T22:53:41.486Z,5.80
2023-02-26T22:56:08.360Z,5.80
2023-02-26T22:58:35.354Z,5.80
2023-02-26T23:01:03.566Z,5.80
2023-02-26T23:03:30.801Z,5.80
2023-02-26T23:05:58.697Z,5.80
2023-02-26T23:08:26.473Z,5.80
2023-02-26T23:10:58.614Z,5.80
2023-02-26T23:13:27.166Z,5.80
2023-02-26T23:15:53.960Z,5.80
2023-02-26T23:18:20.847Z,5.70
2023-02-26T23:20:48.796Z,5.80
2023-02-26T23:23:16.221Z,5.70
2023-02-26T23:25:44.079Z,5.70
2023-02-26T23:28:11.833Z,5.70
2023-02-26T23:30:39.556Z,5.60
2023-02-26T23:33:07.365Z,5.70
2023-02-26T23:35:35.300Z,5.60
2023-02-26T23:38:02.726Z,5.60
2023-02-26T23:40:29.870Z,5.60
2023-02-26T23:42:56.952Z,5.60
2023-02-26T23:45:24.118Z,5.60
2023-02-26T23:47:51.121Z,5.50
2023-02-26T23:50:18.276Z,5.50
2023-02-26T23:52:45.066Z,5.50
2023-02-26T23:55:12.322Z,5.50
2023-02-26T23:57:39.233Z,5.50
